Time;durP1;ratioP1;P1;durP2;ratioP2;P2;SDS_P1;SDS_P2;PMS_P1;PMS_P2;Temp;Humidity;BMP_temperature;BMP_pressure;BME280_temperature;BME280_humidity;BME280_pressure;Samples;Min_cycle;Max_cycle;Signal;HPM_P1;HPM_P2
2022/06/26 00:00:21;;;;;;;4.38;1.92;;;;;;;25.01;55.08;94902.50;5036995;28;20928;-53
2022/06/26 00:02:47;;;;;;;3.88;1.58;;;;;;;24.95;55.07;94910.03;5036396;28;20029;-53
2022/06/26 00:05:12;;;;;;;6.18;2.08;;;;;;;25.00;54.83;94916.69;5043695;28;20037;-53
2022/06/26 00:07:38;;;;;;;3.17;1.60;;;;;;;24.93;55.31;94912.56;5040694;28;20029;-54
2022/06/26 00:10:04;;;;;;;2.95;1.50;;;;;;;24.95;55.08;94899.09;5039077;28;20871;-53
2022/06/26 00:12:30;;;;;;;3.83;1.23;;;;;;;24.98;54.81;94903.53;5036600;28;20029;-53
2022/06/26 00:14:55;;;;;;;2.72;1.40;;;;;;;24.95;54.89;94904.56;5038277;28;20044;-54
2022/06/26 00:17:21;;;;;;;4.63;1.65;;;;;;;24.92;55.31;94910.34;5041799;28;20118;-54
2022/06/26 00:19:47;;;;;;;3.20;1.40;;;;;;;24.92;54.97;94913.81;5041484;28;20028;-53
2022/06/26 00:22:12;;;;;;;4.95;1.75;;;;;;;24.85;55.11;94911.66;5040874;28;20025;-53
2022/06/26 00:24:38;;;;;;;5.70;1.50;;;;;;;24.88;55.15;94910.63;5041481;28;20116;-53
2022/06/26 00:27:06;;;;;;;4.18;1.52;;;;;;;24.90;55.20;94910.88;5042110;28;20089;-53
2022/06/26 00:29:32;;;;;;;4.07;1.80;;;;;;;24.85;55.52;94911.66;5039214;28;20118;-53
2022/06/26 00:31:57;;;;;;;3.08;1.70;;;;;;;24.88;55.08;94899.69;5037191;28;20136;-53
2022/06/26 00:34:23;;;;;;;4.20;1.92;;;;;;;24.89;55.05;94898.44;5034382;28;20026;-53
2022/06/26 00:36:48;;;;;;;3.92;1.80;;;;;;;24.86;55.28;94896.75;5040776;28;20162;-56
2022/06/26 00:39:14;;;;;;;3.13;1.70;;;;;;;24.85;55.38;94895.28;5040845;28;20029;-52
2022/06/26 00:41:40;;;;;;;3.63;2.05;;;;;;;24.85;55.18;94894.56;5039287;28;20116;-52
2022/06/26 00:44:15;;;;;;;4.15;1.55;;;;;;;24.87;55.10;94898.25;5017884;28;20505;-54
2022/06/26 00:46:42;;;;;;;3.80;1.90;;;;;;;24.85;55.31;94894.56;5027292;28;20574;-53
2022/06/26 00:49:07;;;;;;;3.58;1.90;;;;;;;24.84;55.71;94893.81;5040956;28;20083;-53
2022/06/26 00:51:33;;;;;;;4.95;2.08;;;;;;;24.82;55.93;94893.59;5036321;28;20431;-54
2022/06/26 00:53:58;;;;;;;4.07;2.00;;;;;;;24.78;56.26;94894.44;5023271;28;20024;-53
2022/06/26 00:56:24;;;;;;;5.53;1.73;;;;;;;24.77;56.19;94898.41;5041720;28;20033;-52
2022/06/26 00:58:49;;;;;;;5.35;2.30;;;;;;;24.74;56.21;94894.00;5042412;28;20098;-53
2022/06/26 01:01:15;;;;;;;4.22;1.85;;;;;;;24.76;55.93;94894.22;5042174;28;20032;-53
2022/06/26 01:03:40;;;;;;;3.60;2.00;;;;;;;24.73;56.30;94898.72;5041762;28;20028;-53
2022/06/26 01:06:06;;;;;;;4.10;1.77;;;;;;;24.74;56.10;94899.44;5042064;28;20025;-53
2022/06/26 01:08:33;;;;;;;6.55;2.33;;;;;;;24.71;56.53;94903.22;5041122;28;20021;-53
2022/06/26 01:10:58;;;;;;;4.57;2.20;;;;;;;24.66;56.46;94898.59;5040600;28;20021;-52
2022/06/26 01:13:24;;;;;;;4.32;2.20;;;;;;;24.69;56.32;94903.00;5016910;28;20028;-55
2022/06/26 01:15:50;;;;;;;4.18;1.80;;;;;;;24.67;56.55;94902.81;5018210;28;20032;-54
2022/06/26 01:18:16;;;;;;;4.00;2.00;;;;;;;24.66;56.55;94914.97;5040713;28;20032;-54
2022/06/26 01:20:41;;;;;;;5.97;2.17;;;;;;;24.60;56.82;94906.13;5034206;28;20028;-53
2022/06/26 01:23:07;;;;;;;5.45;2.10;;;;;;;24.58;56.42;94908.66;5021680;28;20052;-53
2022/06/26 01:25:48;;;;;;;4.97;2.10;;;;;;;24.57;56.92;94907.94;5035579;28;20520;-54
2022/06/26 01:28:14;;;;;;;9.93;3.03;;;;;;;24.56;56.74;94911.19;5025130;28;20100;-53
2022/06/26 01:30:40;;;;;;;4.93;2.03;;;;;;;24.51;56.85;94903.78;5024534;28;20253;-53
2022/06/26 01:33:06;;;;;;;5.32;2.05;;;;;;;24.47;56.36;94911.56;5042225;28;20044;-53
2022/06/26 01:35:31;;;;;;;6.38;2.17;;;;;;;24.49;56.71;94906.31;5022153;28;20033;-55
2022/06/26 01:38:17;;;;;;;6.50;2.25;;;;;;;24.49;56.48;94911.75;5038753;28;20111;-54
2022/06/26 01:40:43;;;;;;;5.22;2.17;;;;;;;24.47;56.22;94919.75;5035613;28;20142;-54
2022/06/26 01:43:09;;;;;;;7.10;2.70;;;;;;;24.46;56.56;94918.25;5039860;28;20052;-54
2022/06/26 01:45:40;;;;;;;4.90;2.17;;;;;;;24.43;56.50;94922.03;5038230;28;20492;-53
2022/06/26 01:48:06;;;;;;;3.97;1.98;;;;;;;24.41;56.60;94916.34;5033093;28;20104;-53
2022/06/26 01:50:31;;;;;;;7.50;2.45;;;;;;;24.43;56.85;94927.50;5044654;28;20017;-53
2022/06/26 01:52:57;;;;;;;4.72;2.10;;;;;;;24.43;56.67;94924.75;5045116;28;20029;-53
2022/06/26 01:55:22;;;;;;;6.03;2.88;;;;;;;24.42;56.80;94931.47;5042113;28;20079;-55
2022/06/26 01:57:48;;;;;;;4.78;2.55;;;;;;;24.36;57.40;94937.00;5045257;28;20083;-53
2022/06/26 02:00:14;;;;;;;4.90;2.03;;;;;;;24.38;56.91;94939.22;5039583;28;20029;-56
2022/06/26 02:02:39;;;;;;;5.50;2.30;;;;;;;24.38;57.19;94939.22;5035842;28;20423;-57
2022/06/26 02:05:05;;;;;;;8.73;2.53;;;;;;;24.39;57.37;94937.97;5044235;28;20423;-54
2022/06/26 02:07:30;;;;;;;4.35;2.15;;;;;;;24.40;57.69;94942.16;5042319;28;20035;-52
2022/06/26 02:15:23;;;;;;;5.90;2.10;;;;;;;24.34;57.41;94949.69;5045468;28;20035;-52
2022/06/26 02:17:49;;;;;;;5.38;1.83;;;;;;;24.32;57.43;94952.19;5044809;28;20111;-52
2022/06/26 02:20:14;;;;;;;3.60;1.70;;;;;;;24.31;57.89;94950.69;5037343;28;20087;-53
2022/06/26 02:22:40;;;;;;;3.17;2.00;;;;;;;24.30;57.36;94938.31;5043148;28;20028;-52
2022/06/26 02:25:08;;;;;;;4.72;2.25;;;;;;;24.25;57.79;94930.94;5040290;28;20067;-54
2022/06/26 02:27:37;;;;;;;4.88;1.83;;;;;;;24.31;57.36;94945.25;5041816;28;20021;-51
2022/06/26 02:30:02;;;;;;;4.95;1.98;;;;;;;24.29;57.64;94936.09;5036959;28;20037;-57
2022/06/26 02:32:28;;;;;;;5.35;2.10;;;;;;;24.27;57.61;94939.34;5034833;28;20401;-55
2022/06/26 02:34:53;;;;;;;6.20;2.08;;;;;;;24.27;57.61;94939.34;5045188;28;20044;-54
2022/06/26 02:37:19;;;;;;;5.03;2.33;;;;;;;24.27;57.84;94939.34;5015319;28;20022;-54
2022/06/26 02:39:44;;;;;;;5.22;2.00;;;;;;;24.27;57.61;94944.78;5046063;28;20029;-54
2022/06/26 02:42:10;;;;;;;4.35;2.17;;;;;;;24.24;58.02;94940.38;5044766;28;20056;-54
2022/06/26 02:44:36;;;;;;;4.88;1.80;;;;;;;24.21;57.86;94946.13;5029936;28;20098;-53
2022/06/26 02:47:01;;;;;;;4.13;1.83;;;;;;;24.23;58.09;94936.19;5027773;28;20025;-54
2022/06/26 02:49:27;;;;;;;5.60;1.70;;;;;;;24.23;58.17;94949.06;5044743;28;20149;-52
2022/06/26 02:51:52;;;;;;;6.05;1.90;;;;;;;24.18;58.58;94964.25;5036114;28;20021;-52
2022/06/26 02:54:18;;;;;;;4.93;2.08;;;;;;;24.19;58.37;94971.19;5044570;28;20036;-53
2022/06/26 02:56:43;;;;;;;5.28;2.15;;;;;;;24.18;58.09;94969.72;5039483;28;20506;-54
2022/06/26 02:59:09;;;;;;;4.05;2.10;;;;;;;24.18;58.36;94958.81;5041672;28;20029;-54
2022/06/26 03:01:34;;;;;;;6.13;2.38;;;;;;;24.12;58.34;94966.31;5044328;28;20535;-52
2022/06/26 03:04:00;;;;;;;7.20;2.30;;;;;;;24.14;58.48;94963.06;5045701;28;20431;-52
2022/06/26 03:06:25;;;;;;;4.78;1.98;;;;;;;24.13;58.19;94972.53;5044519;28;20025;-52
2022/06/26 03:08:50;;;;;;;7.20;2.40;;;;;;;24.11;58.27;94964.84;5044229;28;20040;-52
2022/06/26 03:11:16;;;;;;;5.85;2.72;;;;;;;24.09;58.54;94969.34;5041470;28;20025;-52
2022/06/26 03:13:41;;;;;;;8.43;2.25;;;;;;;24.10;58.54;94970.84;5038125;28;20033;-55
2022/06/26 03:16:07;;;;;;;5.70;2.00;;;;;;;24.09;58.97;94972.06;5042045;28;20578;-51
2022/06/26 03:18:32;;;;;;;3.53;2.00;;;;;;;24.13;58.67;94981.44;5038170;28;20100;-53
2022/06/26 03:20:58;;;;;;;6.18;1.88;;;;;;;24.18;58.78;94972.44;5045883;28;20029;-52
2022/06/26 03:26:07;;;;;;;5.50;2.15;;;;;;;24.12;58.69;94982.69;5038734;28;20115;-52
2022/06/26 03:28:33;;;;;;;5.50;1.70;;;;;;;24.15;58.84;94978.94;5043976;28;20460;-52
2022/06/26 03:30:58;;;;;;;9.02;2.58;;;;;;;24.11;59.34;94986.69;5040784;28;20025;-54
2022/06/26 03:33:24;;;;;;;3.60;1.80;;;;;;;24.13;59.16;94984.16;5040166;28;20048;-52
2022/06/26 03:35:49;;;;;;;6.93;1.98;;;;;;;24.10;59.25;94985.19;5038596;28;20479;-52
2022/06/26 03:38:15;;;;;;;5.22;1.90;;;;;;;24.15;59.36;94992.56;5037567;28;20029;-52
2022/06/26 03:40:40;;;;;;;5.40;2.42;;;;;;;24.14;59.09;94985.66;5032298;28;20026;-54
2022/06/26 03:43:09;;;;;;;4.43;1.98;;;;;;;24.14;59.39;94987.63;5016908;28;20499;-56
2022/06/26 03:45:35;;;;;;;3.88;1.90;;;;;;;24.14;59.15;94985.66;5041041;28;20095;-52
2022/06/26 03:48:00;;;;;;;4.30;2.42;;;;;;;24.17;59.47;94990.09;5034436;28;20404;-52
2022/06/26 03:50:26;;;;;;;4.28;1.90;;;;;;;24.19;59.21;94993.03;5036492;28;20072;-52
2022/06/26 03:52:51;;;;;;;6.70;2.22;;;;;;;24.15;59.36;95000.75;5026131;28;20029;-52
2022/06/26 03:55:17;;;;;;;4.97;2.30;;;;;;;24.16;59.35;94998.78;5027177;28;20504;-55
2022/06/26 03:57:42;;;;;;;6.57;1.90;;;;;;;24.17;59.15;95005.69;5037153;28;20021;-55
2022/06/26 04:00:08;;;;;;;4.82;2.20;;;;;;;24.11;59.31;95003.06;5040952;28;20026;-55
2022/06/26 04:02:33;;;;;;;4.55;2.42;;;;;;;24.14;59.44;94999.31;5039937;28;20028;-53
2022/06/26 04:04:59;;;;;;;5.35;2.03;;;;;;;24.12;59.66;95004.50;5033631;28;20029;-53
2022/06/26 04:07:24;;;;;;;4.95;2.65;;;;;;;24.16;59.67;95004.25;5033994;28;20029;-53
2022/06/26 04:09:50;;;;;;;8.98;2.70;;;;;;;24.14;59.31;95002.03;5037296;28;20466;-53
2022/06/26 04:12:15;;;;;;;5.25;2.30;;;;;;;24.14;59.14;95002.03;5036208;28;20021;-53
2022/06/26 04:14:41;;;;;;;6.65;2.65;;;;;;;24.16;59.70;94999.50;5038840;28;20136;-54
2022/06/26 04:17:06;;;;;;;5.22;2.63;;;;;;;24.15;59.59;95008.94;5041212;28;20407;-56
2022/06/26 04:19:32;;;;;;;6.30;2.45;;;;;;;24.20;59.26;94999.22;5027172;28;20033;-53
2022/06/26 04:21:58;;;;;;;6.78;2.55;;;;;;;24.19;59.79;95003.94;5039058;28;20029;-58
2022/06/26 04:24:23;;;;;;;4.50;2.40;;;;;;;24.17;59.64;95001.00;5046941;28;20299;-53
2022/06/26 04:26:49;;;;;;;5.85;2.40;;;;;;;24.19;58.99;95001.22;5042201;28;20029;-55
2022/06/26 04:29:14;;;;;;;4.93;2.60;;;;;;;24.19;58.82;95003.94;5038279;28;20040;-52
2022/06/26 04:31:39;;;;;;;5.70;2.50;;;;;;;24.21;59.08;94995.97;5041253;28;20063;-53
2022/06/26 04:34:05;;;;;;;4.75;2.42;;;;;;;24.20;59.17;94999.97;5038236;28;20028;-53
2022/06/26 04:36:30;;;;;;;5.35;2.55;;;;;;;24.16;59.59;94994.06;5041953;28;20051;-53
2022/06/26 04:38:56;;;;;;;5.43;2.42;;;;;;;24.17;59.62;94995.53;5039404;28;20029;-53
2022/06/26 04:41:36;;;;;;;6.30;2.63;;;;;;;24.17;58.65;95006.47;5039540;28;20081;-53
2022/06/26 04:44:06;;;;;;;4.32;2.45;;;;;;;24.18;58.61;95002.47;5040085;28;20514;-53
2022/06/26 04:46:32;;;;;;;5.13;3.38;;;;;;;24.19;58.94;95009.41;5025532;28;20029;-53
2022/06/26 04:48:58;;;;;;;7.78;2.90;;;;;;;24.14;58.48;94996.56;5042719;28;20530;-52
2022/06/26 04:51:23;;;;;;;6.90;2.85;;;;;;;24.18;58.64;95007.91;5040675;28;20025;-52
2022/06/26 04:53:49;;;;;;;4.13;2.80;;;;;;;24.21;59.11;95004.16;5024319;28;20024;-53
2022/06/26 04:56:14;;;;;;;5.05;2.20;;;;;;;24.15;58.67;95003.50;5043460;28;20025;-53
2022/06/26 04:58:40;;;;;;;5.88;2.58;;;;;;;24.14;59.11;95002.03;5036031;28;20025;-53
2022/06/26 05:01:05;;;;;;;3.90;2.40;;;;;;;24.17;59.29;95016.63;5039710;28;20360;-52
2022/06/26 05:03:31;;;;;;;6.78;2.70;;;;;;;24.16;59.25;95010.44;5040133;28;20478;-54
2022/06/26 05:05:56;;;;;;;4.90;3.05;;;;;;;24.16;59.17;95026.81;5036568;28;20036;-52
2022/06/26 05:08:22;;;;;;;5.38;3.08;;;;;;;24.16;58.94;95018.63;5037203;28;20044;-52
2022/06/26 05:10:47;;;;;;;6.13;3.17;;;;;;;24.23;58.92;95018.03;5036217;28;20024;-52
2022/06/26 05:13:13;;;;;;;7.60;3.15;;;;;;;24.19;59.21;95025.78;5041836;28;20021;-52
2022/06/26 05:15:38;;;;;;;7.75;3.13;;;;;;;24.23;58.81;95026.22;5040693;28;20032;-53
2022/06/26 05:18:04;;;;;;;9.02;4.38;;;;;;;24.22;58.90;95024.75;5040291;28;20415;-53
2022/06/26 05:20:29;;;;;;;7.85;3.45;;;;;;;24.21;59.29;95039.63;5039159;28;20111;-52
2022/06/26 05:22:55;;;;;;;6.70;3.72;;;;;;;24.20;59.05;95038.19;5009689;28;20028;-52
2022/06/26 05:25:21;;;;;;;7.32;3.88;;;;;;;24.17;59.30;95039.19;5034257;28;20037;-56
2022/06/26 05:27:46;;;;;;;8.50;3.92;;;;;;;24.20;59.83;95046.38;5039099;28;20274;-52
2022/06/26 05:30:12;;;;;;;8.45;4.07;;;;;;;24.19;59.61;95046.88;5042657;28;20039;-55
2022/06/26 05:32:37;;;;;;;6.38;3.85;;;;;;;24.19;59.88;95053.06;5007315;28;20072;-50
2022/06/26 05:35:03;;;;;;;8.75;4.20;;;;;;;24.19;59.52;95055.78;5026121;28;20531;-53
2022/06/26 05:37:28;;;;;;;12.18;5.50;;;;;;;24.12;59.49;95053.63;5026810;28;20037;-53
2022/06/26 05:39:54;;;;;;;8.90;4.30;;;;;;;24.16;59.99;95053.34;5028163;28;20025;-55
2022/06/26 05:42:19;;;;;;;9.00;3.78;;;;;;;24.13;60.04;95049.66;5029002;28;20028;-53
2022/06/26 05:44:45;;;;;;;7.68;4.07;;;;;;;24.18;59.82;95051.56;5027614;28;20021;-55
2022/06/26 05:47:10;;;;;;;5.88;3.85;;;;;;;24.25;59.82;95056.47;5030096;28;20025;-53
2022/06/26 05:49:35;;;;;;;7.40;4.05;;;;;;;24.28;59.59;95060.91;5029568;28;20030;-52
2022/06/26 05:52:01;;;;;;;6.13;3.97;;;;;;;24.33;59.70;95051.94;5038881;28;20021;-53
2022/06/26 05:54:26;;;;;;;6.95;4.07;;;;;;;24.39;59.69;95060.78;5035132;28;20017;-51
2022/06/26 05:56:52;;;;;;;10.32;4.05;;;;;;;24.45;59.19;95064.19;5040824;28;20040;-50
2022/06/26 05:59:17;;;;;;;6.80;3.72;;;;;;;24.52;58.79;95063.63;5040227;28;20033;-57
2022/06/26 06:01:43;;;;;;;10.25;4.97;;;;;;;24.58;59.67;95067.03;5038480;28;20033;-62
2022/06/26 06:04:08;;;;;;;7.65;3.08;;;;;;;24.66;59.06;95076.09;5040644;28;20032;-53
2022/06/26 06:06:34;;;;;;;10.32;4.63;;;;;;;24.76;58.83;95066.28;5041596;28;20033;-53
2022/06/26 06:08:59;;;;;;;113.20;78.90;;;;;;;24.83;58.70;95050.78;5042960;28;20830;-52
2022/06/26 06:11:25;;;;;;;350.70;211.05;;;;;;;24.92;58.28;95064.06;5022518;28;20422;-52
2022/06/26 06:13:51;;;;;;;388.85;245.48;;;;;;;25.00;57.69;95056.75;5024176;28;20025;-53
2022/06/26 06:16:17;;;;;;;447.85;329.70;;;;;;;25.11;56.69;95064.81;5033618;28;20029;-54
2022/06/26 06:18:43;;;;;;;729.35;486.58;;;;;;;25.23;56.76;95068.13;5027312;28;20079;-55
2022/06/26 06:21:08;;;;;;;1103.28;874.83;;;;;;;25.37;56.08;95062.19;5032725;28;20604;-52
2022/06/26 06:23:34;;;;;;;1247.03;955.42;;;;;;;25.53;55.98;95061.16;5037561;28;20487;-53
2022/06/26 06:25:59;;;;;;;1319.15;990.13;;;;;;;25.63;55.42;95064.97;5032486;28;20062;-52
2022/06/26 06:28:25;;;;;;;728.47;395.02;;;;;;;25.79;54.97;95068.19;5010125;28;20117;-52
2022/06/26 06:30:50;;;;;;;644.70;337.95;;;;;;;25.92;54.46;95068.22;5037277;28;20654;-50
2022/06/26 06:33:16;;;;;;;1012.25;670.88;;;;;;;26.11;54.03;95071.59;5038013;28;20021;-50
2022/06/26 06:35:41;;;;;;;136.75;88.97;;;;;;;26.26;53.53;95071.06;5042784;28;20482;-54
2022/06/26 06:38:07;;;;;;;38.78;34.83;;;;;;;26.35;53.36;95063.19;5041052;28;20455;-54
2022/06/26 06:40:33;;;;;;;9.68;2.90;;;;;;;26.49;53.20;95064.69;5030506;28;20033;-51
2022/06/26 06:42:59;;;;;;;21.35;19.15;;;;;;;26.57;52.19;95060.03;5036274;28;20030;-52
2022/06/26 06:45:24;;;;;;;3.63;2.47;;;;;;;26.60;51.98;95067.91;5039320;28;20029;-50
2022/06/26 06:47:49;;;;;;;4.03;2.53;;;;;;;26.58;51.63;95064.25;5031582;28;20025;-50
2022/06/26 06:50:15;;;;;;;6.78;2.60;;;;;;;26.68;51.70;95062.53;5039629;28;20021;-51
2022/06/26 06:52:40;;;;;;;4.78;2.58;;;;;;;26.62;51.76;95064.66;5037344;28;20028;-51
2022/06/26 06:55:06;;;;;;;7.72;2.65;;;;;;;26.68;51.76;95068.00;5038908;28;20059;-50
2022/06/26 06:57:32;;;;;;;5.63;2.60;;;;;;;26.95;51.11;95070.94;5043284;28;20082;-51
2022/06/26 06:59:57;;;;;;;6.38;3.53;;;;;;;26.98;50.73;95069.88;5042230;28;20522;-50
2022/06/26 07:02:23;;;;;;;7.30;2.65;;;;;;;26.99;50.49;95065.84;5040140;28;20102;-50
2022/06/26 07:04:49;;;;;;;5.40;2.70;;;;;;;26.88;50.83;95060.59;5030874;28;20888;-51
2022/06/26 07:07:14;;;;;;;7.75;3.10;;;;;;;26.73;50.96;95064.44;5039877;28;20060;-50
2022/06/26 07:09:40;;;;;;;6.53;2.90;;;;;;;26.79;51.17;95058.28;5044592;28;20031;-50
2022/06/26 07:12:05;;;;;;;5.20;3.03;;;;;;;26.76;50.60;95062.09;5042415;28;20416;-52
2022/06/26 07:14:31;;;;;;;381.65;184.65;;;;;;;26.68;50.91;95057.81;5032803;28;20037;-52
2022/06/26 07:16:56;;;;;;;55.05;17.83;;;;;;;26.71;50.32;95066.97;5038983;28;20032;-51
2022/06/26 07:19:22;;;;;;;4.70;2.47;;;;;;;26.65;50.54;95069.06;5044586;28;20850;-51
2022/06/26 07:21:47;;;;;;;77.18;35.55;;;;;;;26.68;50.57;95068.00;5040695;28;20021;-50
2022/06/26 07:24:13;;;;;;;100.20;40.67;;;;;;;26.52;51.16;95066.38;5043078;28;20024;-50
2022/06/26 07:26:39;;;;;;;932.78;434.02;;;;;;;26.55;50.62;95068.06;5042243;28;20021;-52
2022/06/26 07:29:05;;;;;;;965.03;476.35;;;;;;;26.52;50.87;95058.16;5042042;28;20218;-51
2022/06/26 07:31:30;;;;;;;5.82;2.40;;;;;;;26.52;50.29;95060.88;5042847;28;20060;-50
2022/06/26 07:34:15;;;;;;;5.88;2.97;;;;;;;26.41;50.48;95056.38;5037518;28;20563;-50
2022/06/26 07:36:41;;;;;;;5.85;2.70;;;;;;;26.40;51.47;95059.63;5042995;28;20033;-52
2022/06/26 07:39:07;;;;;;;7.15;2.33;;;;;;;26.37;51.39;95060.69;5032515;28;20527;-52
2022/06/26 07:41:33;;;;;;;6.15;2.50;;;;;;;26.41;51.15;95061.09;5041331;28;20029;-50
2022/06/26 07:43:58;;;;;;;4.60;2.40;;;;;;;26.31;51.54;95049.84;5039761;28;20503;-51
2022/06/26 07:46:24;;;;;;;3.95;2.47;;;;;;;26.35;51.54;95052.25;5033490;28;20040;-50
2022/06/26 07:48:49;;;;;;;5.47;3.47;;;;;;;26.37;51.65;95055.22;5042166;28;20044;-50
2022/06/26 07:51:15;;;;;;;4.28;2.40;;;;;;;26.40;51.62;95054.16;5031077;28;20029;-50
2022/06/26 07:53:40;;;;;;;4.95;3.42;;;;;;;26.34;52.06;95056.28;5041448;28;20632;-52
2022/06/26 07:56:06;;;;;;;34.88;18.00;;;;;;;26.30;52.14;95050.38;5030032;28;20110;-50
2022/06/26 07:58:31;;;;;;;166.98;108.43;;;;;;;26.30;52.14;95050.38;5014698;28;20029;-51
2022/06/26 08:00:57;;;;;;;271.40;176.20;;;;;;;26.28;52.43;95048.16;5038810;28;20013;-51
2022/06/26 08:03:22;;;;;;;7.20;3.47;;;;;;;26.32;51.74;95047.81;5038709;28;20029;-52
2022/06/26 08:05:48;;;;;;;5.53;2.40;;;;;;;26.32;51.78;95042.34;5041098;28;20021;-51
2022/06/26 08:08:13;;;;;;;7.57;2.95;;;;;;;26.35;52.19;95044.03;5043174;28;20032;-50
2022/06/26 08:10:39;;;;;;;5.82;2.67;;;;;;;26.32;52.04;95047.81;5040243;28;20033;-51
2022/06/26 08:13:05;;;;;;;6.13;2.92;;;;;;;26.27;52.12;95048.66;5042317;28;20499;-52
2022/06/26 08:15:31;;;;;;;6.13;2.85;;;;;;;26.30;52.66;95039.41;5043199;28;20527;-51
2022/06/26 08:17:56;;;;;;;4.72;2.30;;;;;;;26.34;51.98;95053.53;5039772;28;20028;-51
2022/06/26 08:20:22;;;;;;;8.32;3.33;;;;;;;26.30;51.82;95045.63;5023000;28;20029;-51
2022/06/26 08:22:47;;;;;;;5.85;2.92;;;;;;;26.33;52.00;95043.84;5041570;28;20029;-50
2022/06/26 08:25:13;;;;;;;4.93;2.58;;;;;;;26.34;51.75;95048.06;5033153;28;20032;-50
2022/06/26 08:27:38;;;;;;;4.13;2.65;;;;;;;26.38;51.79;95045.72;5042554;28;20771;-52
2022/06/26 08:30:04;;;;;;;1856.18;884.38;;;;;;;26.34;51.62;95045.31;5038715;28;20150;-50
2022/06/26 08:32:30;;;;;;;675.33;385.48;;;;;;;26.38;51.32;95048.44;5030797;28;20071;-52
2022/06/26 08:34:55;;;;;;;53.28;21.75;;;;;;;26.38;51.39;95051.19;5037089;28;20475;-51
2022/06/26 08:37:21;;;;;;;66.32;28.48;;;;;;;26.38;51.41;95046.47;5042632;28;20036;-51
2022/06/26 08:39:46;;;;;;;8.10;2.80;;;;;;;26.39;51.63;95053.41;5043204;28;20037;-51
2022/06/26 08:42:12;;;;;;;5.30;3.22;;;;;;;26.40;51.22;95059.63;5037569;28;20666;-51
2022/06/26 08:44:44;;;;;;;6.40;2.63;;;;;;;26.41;51.52;95050.13;5034980;28;20114;-50
2022/06/26 08:47:10;;;;;;;77.45;31.67;;;;;;;26.43;51.12;95053.09;5026953;28;20065;-50
2022/06/26 08:49:36;;;;;;;5.72;3.00;;;;;;;26.42;50.92;95057.09;5041443;28;20120;-50
2022/06/26 08:52:02;;;;;;;5.40;2.50;;;;;;;26.42;50.57;95051.63;5022972;28;20048;-51
2022/06/26 08:54:28;;;;;;;4.47;2.58;;;;;;;26.40;50.26;95054.16;5038270;28;20025;-53
2022/06/26 08:56:53;;;;;;;6.15;2.35;;;;;;;26.43;50.77;95053.09;5003139;28;20730;-50
2022/06/26 08:59:20;;;;;;;4.50;2.47;;;;;;;26.48;50.37;95049.50;5040760;28;20036;-50
2022/06/26 09:01:46;;;;;;;6.85;2.45;;;;;;;26.50;49.40;95046.97;5029670;28;20507;-50
2022/06/26 09:04:12;;;;;;;7.70;2.10;;;;;;;26.53;48.61;95045.91;5038309;28;20039;-50
2022/06/26 09:06:38;;;;;;;6.40;2.58;;;;;;;26.51;48.48;95034.75;5040120;28;20055;-51
2022/06/26 09:09:19;;;;;;;8.82;3.47;;;;;;;26.54;48.17;95041.91;5005218;28;20432;-52
2022/06/26 09:11:45;;;;;;;235.05;132.45;;;;;;;26.56;48.24;95039.38;5041690;28;20174;-50
2022/06/26 09:14:11;;;;;;;66.47;33.65;;;;;;;26.63;47.73;95041.47;5027508;28;20476;-50
2022/06/26 09:16:39;;;;;;;3.88;2.15;;;;;;;26.59;47.94;95038.31;5037463;28;20041;-52
2022/06/26 09:19:09;;;;;;;4.43;2.40;;;;;;;26.58;47.42;95042.34;5041556;28;20452;-51
2022/06/26 09:21:34;;;;;;;5.03;2.38;;;;;;;26.65;47.57;95041.69;5023528;28;20269;-51
2022/06/26 09:24:00;;;;;;;4.63;1.80;;;;;;;26.66;46.98;95026.72;5031811;28;20060;-50
2022/06/26 09:26:25;;;;;;;4.95;1.92;;;;;;;26.66;47.09;95032.19;5034639;28;20064;-50
2022/06/26 09:28:51;;;;;;;4.25;2.15;;;;;;;26.68;46.18;95035.88;5037857;28;20037;-50
2022/06/26 09:31:20;;;;;;;5.43;1.98;;;;;;;26.70;45.92;95032.63;5042121;28;20483;-50
2022/06/26 09:33:46;;;;;;;58.90;22.05;;;;;;;26.71;45.81;95028.59;5042385;28;20580;-50
2022/06/26 09:36:16;;;;;;;3.22;1.80;;;;;;;26.73;46.75;95039.78;5023991;28;20086;-51
2022/06/26 09:38:46;;;;;;;;;;;;;;;26.73;47.35;95031.56;5032245;28;20037;-52
2022/06/26 09:41:12;;;;;;;3.20;1.70;;;;;;;26.75;47.37;95029.75;5042147;28;19936;-52
2022/06/26 09:43:40;;;;;;;5.50;1.80;;;;;;;26.74;47.50;95027.53;5024339;28;20491;-50
2022/06/26 09:46:11;;;;;;;7.20;2.65;;;;;;;26.71;47.58;95034.06;5016395;28;20095;-50
2022/06/26 09:48:37;;;;;;;5.68;2.88;;;;;;;26.73;47.25;95037.03;5035406;28;20135;-50
2022/06/26 09:51:03;;;;;;;6.90;2.78;;;;;;;26.76;47.14;95036.72;5041344;28;20578;-50
2022/06/26 09:53:30;;;;;;;7.78;3.10;;;;;;;26.79;47.03;95041.84;5037915;28;20052;-50
2022/06/26 09:55:56;;;;;;;28.52;11.90;;;;;;;26.79;47.67;95041.84;5041199;28;20025;-51
2022/06/26 09:58:22;;;;;;;4.45;2.05;;;;;;;26.80;47.85;95048.06;5026515;28;20142;-50
2022/06/26 10:06:27;;;;;;;73.00;40.25;;;;;;;26.82;47.32;95043.53;5041158;28;20134;-51
2022/06/26 10:09:05;;;;;;;491.35;333.00;;;;;;;26.85;46.50;95037.00;5032478;28;20036;-52
2022/06/26 10:11:32;;;;;;;23.35;18.85;;;;;;;26.87;46.50;95031.69;5019902;28;20492;-51
2022/06/26 10:14:06;;;;;;;123.40;81.72;;;;;;;26.88;46.65;95024.97;5028073;28;20053;-51
2022/06/26 10:16:44;;;;;;;5.32;2.85;;;;;;;26.88;46.55;95024.97;4997887;28;20075;-51
2022/06/26 10:19:21;;;;;;;7.18;2.88;;;;;;;26.92;46.61;95028.16;5045222;28;20075;-50
2022/06/26 10:21:47;;;;;;;8.15;3.20;;;;;;;26.95;46.70;95020.84;5041234;28;20021;-50
2022/06/26 10:24:13;;;;;;;167.77;115.65;;;;;;;26.94;46.83;95009.16;5043872;28;20534;-51
2022/06/26 10:26:38;;;;;;;2.67;2.05;;;;;;;27.00;46.62;95014.53;5026353;28;20025;-52
2022/06/26 10:29:05;;;;;;;66.82;49.78;;;;;;;26.98;46.95;95009.56;5034240;28;20029;-51
2022/06/26 10:31:52;;;;;;;605.13;355.80;;;;;;;26.99;46.95;95004.81;5029423;28;20191;-50
2022/06/26 10:34:22;;;;;;;365.25;198.63;;;;;;;27.00;47.49;95001.53;5031849;28;20071;-51
2022/06/26 10:37:02;;;;;;;;;;;;;;;26.99;46.59;95000.06;5038101;28;20029;-51
2022/06/26 10:39:43;;;;;;;333.40;189.10;;;;;;;27.01;46.45;94997.53;5031724;28;19952;-51
2022/06/26 10:45:29;;;;;;;298.60;161.98;;;;;;;27.04;46.58;94985.50;5039228;28;20427;-51
2022/06/26 10:47:56;;;;;;;317.00;170.57;;;;;;;27.04;47.07;95001.97;5034143;28;20045;-52
2022/06/26 10:50:32;;;;;;;384.42;209.02;;;;;;;27.07;46.94;94995.41;5044162;28;20393;-50
2022/06/26 10:53:23;;;;;;;1103.50;837.15;;;;;;;27.10;46.73;94994.34;5042406;28;20036;-51
2022/06/26 10:56:05;;;;;;;955.85;731.85;;;;;;;27.11;45.90;94995.81;5043379;28;20017;-50
2022/06/26 10:58:37;;;;;;;865.25;652.67;;;;;;;27.12;46.48;94997.28;5040042;28;20112;-50
2022/06/26 11:01:07;;;;;;;760.47;516.70;;;;;;;27.13;45.01;94992.53;5042930;28;20025;-50
2022/06/26 11:03:32;;;;;;;877.25;607.83;;;;;;;27.14;45.35;94983.75;5043601;28;20087;-52
2022/06/26 11:06:00;;;;;;;1283.55;980.30;;;;;;;27.14;45.51;94986.50;5037842;28;20395;-50
2022/06/26 11:08:46;;;;;;;1455.65;999.90;;;;;;;27.17;45.68;94988.19;5044900;28;20112;-50
2022/06/26 11:11:14;;;;;;;1801.45;999.90;;;;;;;27.18;45.25;94984.19;5027895;28;20036;-50
2022/06/26 11:13:57;;;;;;;1252.18;952.45;;;;;;;27.20;45.30;94987.09;5042829;28;20021;-51
2022/06/26 11:16:35;;;;;;;1039.90;830.58;;;;;;;27.21;44.25;94988.59;5026716;28;20036;-51
2022/06/26 11:19:05;;;;;;;443.90;237.35;;;;;;;27.20;43.75;94992.59;5045124;28;20492;-51
2022/06/26 11:21:31;;;;;;;405.85;214.38;;;;;;;27.22;44.08;94979.09;5041302;28;20029;-50
2022/06/26 11:23:57;;;;;;;398.88;210.57;;;;;;;27.21;43.74;94977.63;5025247;28;20021;-50
2022/06/26 11:26:23;;;;;;;624.35;395.75;;;;;;;27.26;43.77;94990.44;5038350;28;21347;-50
2022/06/26 11:28:55;;;;;;;857.33;630.60;;;;;;;27.27;43.67;94987.19;5041274;28;20037;-51
2022/06/26 11:31:22;;;;;;;1040.55;824.88;;;;;;;27.30;42.48;94990.88;5042133;28;20041;-50
2022/06/26 11:33:48;;;;;;;730.47;501.08;;;;;;;27.32;42.72;94993.78;5041289;28;20040;-50
2022/06/26 11:36:15;;;;;;;695.63;472.42;;;;;;;27.33;43.22;94990.53;5021757;28;20672;-50
2022/06/26 11:38:54;;;;;;;661.92;455.65;;;;;;;27.32;43.02;94978.09;5042190;28;20028;-52
2022/06/26 11:41:21;;;;;;;891.83;718.57;;;;;;;27.34;42.41;94980.31;5042175;28;20017;-50